Terminal Aerodrome Forecast
Issued by NWS

Home | Current Version | Previous Version | Text Only | Print | Product List | Glossary On
Versions: 1 2 3 4 5 6 7 8 9 10 11 12 13 14 15 16 17 18 19
000
FTUS42 KJAX 052345
TAFVQQ
TAF
KVQQ 052345Z 0600/0624 05007KT P6SM FEW040 BKN200
     FM060200 05004KT P6SM SCT040 OVC200
     FM061000 04003KT P6SM VCSH SCT025 BKN035 OVC200
     FM061400 03011G20KT P6SM VCSH SCT020 BKN030 BKN100
     FM062300 36008G15KT P6SM VCSH SCT015 BKN030 BKN070=

USA.gov is the U.S. government's official web portal to all federal, state and local government web resources and services.